Terminal Aerodrome Forecast
Issued by NWS North Platte, NE

Home | Current Version | Previous Version | Graphics & Text | Print | Product List | Glossary On
Versions: 1 2 3 4 5 6 7 8 9 10 11 12
792
FTUS43 KLBF 211512 AAA
TAFVTN
TAF AMD
KVTN 211512Z 2115/2212 10013KT P6SM BKN025
     FM211900 11011KT P6SM BKN035
     FM212300 10010KT P6SM SCT150
     FM220300 VRB06KT P6SM SCT200
     FM220800 VRB06KT P6SM SKC=

USA.gov is the U.S. government's official web portal to all federal, state and local government web resources and services.